createdAt,value
2022-09-02T00:01:00.838Z,3.55
2022-09-02T00:03:30.206Z,3.72
2022-09-02T00:05:59.164Z,3.95
2022-09-02T00:08:29.058Z,2.95
2022-09-02T00:10:57.417Z,3.20
2022-09-02T00:13:26.617Z,3.47
2022-09-02T00:15:55.392Z,3.20
2022-09-02T00:18:26.502Z,3.40
2022-09-02T00:20:55.116Z,3.33
2022-09-02T00:23:23.623Z,3.08
2022-09-02T00:25:57.144Z,3.08
2022-09-02T00:28:25.576Z,3.03
2022-09-02T00:30:54.100Z,3.20
2022-09-02T00:33:22.754Z,2.70
2022-09-02T00:35:51.288Z,3.10
2022-09-02T00:38:19.666Z,2.60
2022-09-02T00:40:50.006Z,2.40
2022-09-02T00:43:27.500Z,3.10
2022-09-02T00:45:56.078Z,2.78
2022-09-02T00:48:25.090Z,2.40
2022-09-02T00:50:53.664Z,3.00
2022-09-02T00:53:22.708Z,2.80
2022-09-02T00:55:52.318Z,2.90
2022-09-02T00:58:24.953Z,3.05
2022-09-02T01:00:58.125Z,2.92
2022-09-02T01:03:29.189Z,3.20
2022-09-02T01:05:59.509Z,2.80
2022-09-02T01:08:34.804Z,2.45
2022-09-02T01:11:06.769Z,2.63
2022-09-02T01:13:41.565Z,2.90
2022-09-02T01:16:16.454Z,2.65
2022-09-02T01:18:53.432Z,3.00
2022-09-02T01:21:23.230Z,3.28
2022-09-02T01:23:53.700Z,2.70
2022-09-02T01:26:22.895Z,3.00
2022-09-02T01:28:51.416Z,3.00
2022-09-02T01:31:20.196Z,3.00
2022-09-02T01:33:49.317Z,3.75
2022-09-02T01:36:17.951Z,3.10
2022-09-02T01:38:46.446Z,3.45
2022-09-02T01:41:16.602Z,3.60
2022-09-02T01:43:45.284Z,3.80
2022-09-02T01:46:14.020Z,3.80
2022-09-02T01:48:42.776Z,3.55
2022-09-02T01:51:17.105Z,3.15
2022-09-02T01:53:45.807Z,3.45
2022-09-02T01:56:16.501Z,3.72
2022-09-02T01:58:44.957Z,3.70
2022-09-02T02:01:13.787Z,3.85
2022-09-02T02:03:43.234Z,3.75
2022-09-02T02:06:16.604Z,3.72
2022-09-02T02:08:46.628Z,3.78
2022-09-02T02:11:22.599Z,4.18
2022-09-02T02:13:51.300Z,4.13
2022-09-02T02:16:20.188Z,4.13
2022-09-02T02:18:48.769Z,3.88
2022-09-02T02:21:17.517Z,5.15
2022-09-02T02:23:48.892Z,4.50
2022-09-02T02:26:22.690Z,4.50
2022-09-02T02:28:51.542Z,4.22
2022-09-02T02:31:20.512Z,4.55
2022-09-02T02:33:49.472Z,4.40
2022-09-02T02:36:18.546Z,4.55
2022-09-02T02:38:47.802Z,4.82
2022-09-02T02:41:17.144Z,4.97
2022-09-02T02:43:47.336Z,4.18
2022-09-02T02:46:16.758Z,3.50
2022-09-02T02:48:45.634Z,3.70
2022-09-02T02:51:15.015Z,3.40
2022-09-02T02:53:43.870Z,3.75
2022-09-02T02:56:12.603Z,3.50
2022-09-02T02:58:41.341Z,3.50
2022-09-02T03:01:12.231Z,3.70
2022-09-02T03:03:42.917Z,3.55
2022-09-02T03:06:12.053Z,3.85
2022-09-02T03:08:40.669Z,3.47
2022-09-02T03:11:11.443Z,3.50
2022-09-02T03:13:40.438Z,3.92
2022-09-02T03:16:11.733Z,3.80
2022-09-02T03:18:56.591Z,3.50
2022-09-02T03:21:58.472Z,4.22
2022-09-02T03:24:39.117Z,3.90
2022-09-02T03:27:11.989Z,3.88
2022-09-02T03:29:40.995Z,3.85
2022-09-02T03:32:11.088Z,3.80
2022-09-02T03:34:43.859Z,4.28
2022-09-02T03:37:12.847Z,3.20
2022-09-02T03:39:41.984Z,3.80
2022-09-02T03:42:19.316Z,3.72
2022-09-02T03:44:49.372Z,3.90
2022-09-02T03:47:20.796Z,3.97
2022-09-02T03:49:53.775Z,3.70
2022-09-02T03:52:22.850Z,3.45
2022-09-02T03:54:51.787Z,3.90
2022-09-02T03:57:26.260Z,4.20
2022-09-02T03:59:55.941Z,3.42
2022-09-02T04:02:29.733Z,4.07
2022-09-02T04:05:15.522Z,4.00
2022-09-02T04:07:52.889Z,4.40
2022-09-02T04:10:23.570Z,4.70
2022-09-02T04:12:53.760Z,4.85
2022-09-02T04:15:23.104Z,4.35
2022-09-02T04:20:50.885Z,4.13
2022-09-02T04:23:24.443Z,4.65
2022-09-02T04:26:18.915Z,4.45
2022-09-02T04:29:06.315Z,5.32
2022-09-02T04:31:37.027Z,4.57
2022-09-02T04:34:10.501Z,5.57
2022-09-02T04:36:39.822Z,5.20
2022-09-02T04:39:15.703Z,4.80
2022-09-02T04:41:57.021Z,5.28
2022-09-02T04:44:32.461Z,5.53
2022-09-02T04:47:02.458Z,5.22
2022-09-02T04:49:33.852Z,5.35
2022-09-02T04:52:09.033Z,6.07
2022-09-02T04:54:40.917Z,6.25
2022-09-02T04:57:10.016Z,7.90
2022-09-02T04:59:38.528Z,10.85
2022-09-02T05:02:08.117Z,11.30
2022-09-02T05:04:38.464Z,11.80
2022-09-02T05:07:07.154Z,12.38
2022-09-02T05:09:35.620Z,10.93
2022-09-02T05:12:04.928Z,11.25
2022-09-02T05:14:33.753Z,9.95
2022-09-02T05:17:07.234Z,9.57
2022-09-02T05:19:38.079Z,9.20
2022-09-02T05:22:06.776Z,8.52
2022-09-02T05:24:35.336Z,8.98
2022-09-02T05:27:05.484Z,9.25
2022-09-02T05:29:33.971Z,9.75
2022-09-02T05:32:02.645Z,9.40
2022-09-02T05:34:31.347Z,9.40
2022-09-02T05:37:01.504Z,8.15
2022-09-02T05:39:31.366Z,8.43
2022-09-02T05:42:00.089Z,8.90
2022-09-02T05:44:29.373Z,11.65
2022-09-02T05:46:57.793Z,10.68
2022-09-02T05:49:27.039Z,11.10
2022-09-02T05:51:58.324Z,11.15
2022-09-02T05:54:32.156Z,12.60
2022-09-02T05:57:01.876Z,16.80
2022-09-02T05:59:33.943Z,11.38
2022-09-02T06:02:02.306Z,7.00
2022-09-02T06:04:32.139Z,4.75
2022-09-02T06:07:00.402Z,3.40
2022-09-02T06:09:30.032Z,2.90
2022-09-02T06:11:58.429Z,2.57
2022-09-02T06:14:26.957Z,3.70
2022-09-02T06:16:56.563Z,2.90
2022-09-02T06:19:26.393Z,2.30
2022-09-02T06:21:55.389Z,2.90
2022-09-02T06:24:23.667Z,3.40
2022-09-02T06:26:55.552Z,3.07
2022-09-02T06:29:26.909Z,2.03
2022-09-02T06:31:55.176Z,2.57
2022-09-02T06:34:27.290Z,2.90
2022-09-02T06:36:57.608Z,2.27
2022-09-02T06:39:26.961Z,2.33
2022-09-02T06:41:56.940Z,2.73
2022-09-02T06:44:25.286Z,2.63
2022-09-02T06:46:56.848Z,2.13
2022-09-02T06:49:26.397Z,2.10
2022-09-02T06:51:56.793Z,2.10
2022-09-02T06:54:25.632Z,1.87
2022-09-02T06:56:54.406Z,2.20
2022-09-02T06:59:24.381Z,1.73
2022-09-02T07:01:52.848Z,1.77
2022-09-02T07:04:38.324Z,1.50
2022-09-02T07:07:08.757Z,1.73
2022-09-02T07:09:37.021Z,1.70
2022-09-02T07:12:05.957Z,2.00
2022-09-02T07:14:38.520Z,1.80
2022-09-02T07:17:07.392Z,1.90
2022-09-02T07:19:35.692Z,1.90
2022-09-02T07:22:05.357Z,1.90
2022-09-02T07:24:33.496Z,15.33
2022-09-02T07:27:01.673Z,3.70
2022-09-02T07:29:29.837Z,1.60
2022-09-02T07:31:59.905Z,1.20
2022-09-02T07:34:28.177Z,1.10
2022-09-02T07:37:01.750Z,1.10
2022-09-02T07:39:32.199Z,1.07
2022-09-02T07:42:01.093Z,1.13
2022-09-02T07:44:29.613Z,1.10
2022-09-02T07:46:59.120Z,1.10
2022-09-02T07:49:27.979Z,1.20
2022-09-02T07:51:56.342Z,1.17
2022-09-02T07:54:26.972Z,1.30
2022-09-02T07:56:55.830Z,1.50
2022-09-02T07:59:24.770Z,1.30
2022-09-02T08:01:53.596Z,1.70
2022-09-02T08:04:25.248Z,1.13
2022-09-02T08:06:54.508Z,1.37
2022-09-02T08:09:23.334Z,1.23
2022-09-02T08:11:52.410Z,1.20
2022-09-02T08:14:25.153Z,1.20
2022-09-02T08:16:54.727Z,1.10
2022-09-02T08:19:25.228Z,1.17
2022-09-02T08:21:53.654Z,1.30
2022-09-02T08:24:21.774Z,1.10
2022-09-02T08:26:49.936Z,0.80
2022-09-02T08:29:18.111Z,0.90
2022-09-02T08:31:46.953Z,0.80
2022-09-02T08:34:17.138Z,0.80
2022-09-02T08:36:48.980Z,0.67
2022-09-02T08:39:24.809Z,0.60
2022-09-02T08:44:30.492Z,0.83
2022-09-02T08:47:04.030Z,0.90
2022-09-02T08:49:36.593Z,0.80
2022-09-02T08:52:07.301Z,0.83
2022-09-02T08:54:43.372Z,1.00
2022-09-02T08:57:12.204Z,0.83
2022-09-02T08:59:43.847Z,0.80
2022-09-02T09:02:22.686Z,0.80
2022-09-02T09:05:11.230Z,0.70
2022-09-02T09:07:55.910Z,0.73
2022-09-02T09:10:29.644Z,0.70
2022-09-02T09:13:23.701Z,0.80
2022-09-02T09:15:57.817Z,0.77
2022-09-02T09:18:34.925Z,0.70
2022-09-02T09:21:03.374Z,0.80
2022-09-02T09:23:34.919Z,0.70
2022-09-02T09:26:09.704Z,0.73
2022-09-02T09:28:42.419Z,0.90
2022-09-02T09:31:15.834Z,1.33
2022-09-02T09:33:57.176Z,0.90
2022-09-02T09:36:49.380Z,1.10
2022-09-02T09:39:36.743Z,0.90
2022-09-02T09:42:13.536Z,0.80
2022-09-02T09:44:45.731Z,0.80
2022-09-02T09:47:20.956Z,0.70
2022-09-02T09:49:50.271Z,0.80
2022-09-02T09:52:26.596Z,0.80
2022-09-02T09:55:19.105Z,1.30
2022-09-02T09:57:54.048Z,0.77
2022-09-02T10:00:28.068Z,1.00
2022-09-02T10:03:00.100Z,0.90
2022-09-02T10:05:36.954Z,0.90
2022-09-02T10:08:10.849Z,0.90
2022-09-02T10:10:57.739Z,0.83
2022-09-02T10:13:27.907Z,0.90
2022-09-02T10:16:14.385Z,0.83
2022-09-02T10:18:49.237Z,1.10
2022-09-02T10:21:30.056Z,0.90
2022-09-02T10:24:06.555Z,0.90
2022-09-02T10:26:40.341Z,1.03
2022-09-02T10:29:52.396Z,0.93
2022-09-02T10:32:51.528Z,0.90
2022-09-02T10:35:26.254Z,0.93
2022-09-02T10:38:07.848Z,1.30
2022-09-02T10:40:42.677Z,0.80
2022-09-02T10:43:24.109Z,1.03
2022-09-02T10:45:56.243Z,0.83
2022-09-02T10:48:33.377Z,0.87
2022-09-02T10:51:07.721Z,0.83
2022-09-02T10:54:01.854Z,0.70
2022-09-02T10:56:35.143Z,0.80
2022-09-02T10:59:11.253Z,0.70
2022-09-02T11:01:46.603Z,0.80
2022-09-02T11:04:21.087Z,0.80
2022-09-02T11:07:03.533Z,0.80
2022-09-02T11:09:37.929Z,0.90
2022-09-02T11:12:11.062Z,0.80
2022-09-02T11:14:51.593Z,1.00
2022-09-02T11:17:26.192Z,0.80
2022-09-02T11:20:00.589Z,0.80
2022-09-02T11:22:36.105Z,0.80
2022-09-02T11:25:09.352Z,0.73
2022-09-02T11:27:43.991Z,0.90
2022-09-02T11:30:18.500Z,1.00
2022-09-02T11:32:51.826Z,0.80
2022-09-02T11:35:27.994Z,0.80
2022-09-02T11:38:01.641Z,0.90
2022-09-02T11:40:38.810Z,0.80
2022-09-02T11:43:32.271Z,0.80
2022-09-02T11:46:25.994Z,0.97
2022-09-02T11:49:22.431Z,0.80
2022-09-02T11:52:04.298Z,0.93
2022-09-02T11:54:38.083Z,0.90
2022-09-02T11:57:08.076Z,1.00
2022-09-02T12:00:09.700Z,1.10
2022-09-02T12:02:44.433Z,0.90
2022-09-02T12:05:48.121Z,0.90
2022-09-02T12:08:50.652Z,0.80
2022-09-02T12:11:38.067Z,0.80
2022-09-02T12:14:08.114Z,0.90
2022-09-02T12:16:46.371Z,0.90
2022-09-02T12:19:30.630Z,0.90
2022-09-02T12:22:28.806Z,0.90
2022-09-02T12:24:57.928Z,0.80
2022-09-02T12:27:32.684Z,0.97
2022-09-02T12:30:01.943Z,0.77
2022-09-02T12:33:05.097Z,0.80
2022-09-02T12:35:52.716Z,0.80
2022-09-02T12:38:38.732Z,0.90
2022-09-02T12:41:30.490Z,0.90
2022-09-02T12:44:21.373Z,0.80
2022-09-02T12:46:59.505Z,0.80
2022-09-02T12:49:41.670Z,0.60
2022-09-02T12:52:12.860Z,0.70
2022-09-02T12:54:49.164Z,0.90
2022-09-02T12:57:19.264Z,1.10
2022-09-02T12:59:48.885Z,1.50
2022-09-02T13:02:43.101Z,1.43
2022-09-02T13:05:20.146Z,0.80
2022-09-02T13:08:12.080Z,0.83
2022-09-02T13:10:57.528Z,0.90
2022-09-02T13:14:00.411Z,0.90
2022-09-02T13:16:40.444Z,1.00
2022-09-02T13:19:40.175Z,0.90
2022-09-02T13:22:33.703Z,0.80
2022-09-02T13:25:57.928Z,0.80
2022-09-02T13:29:09.469Z,0.90
2022-09-02T13:31:38.147Z,1.00
2022-09-02T13:34:11.211Z,1.00
2022-09-02T13:36:43.622Z,0.90
2022-09-02T13:39:16.991Z,1.00
2022-09-02T13:41:45.749Z,1.00
2022-09-02T13:44:22.408Z,1.10
2022-09-02T13:46:53.491Z,0.80
2022-09-02T13:49:29.504Z,0.80
2022-09-02T13:51:58.788Z,0.87
2022-09-02T13:54:33.777Z,0.90
2022-09-02T13:57:05.691Z,0.90
2022-09-02T13:59:37.808Z,0.80
2022-09-02T14:02:25.836Z,0.80
2022-09-02T14:04:58.675Z,1.00
2022-09-02T14:07:41.085Z,0.90
2022-09-02T14:10:12.426Z,0.80
2022-09-02T14:12:41.775Z,0.90
2022-09-02T14:15:14.440Z,1.20
2022-09-02T14:17:42.795Z,0.93
2022-09-02T14:20:21.754Z,1.10
2022-09-02T14:22:57.622Z,0.80
2022-09-02T14:25:27.781Z,0.83
2022-09-02T14:27:57.729Z,1.40
2022-09-02T14:30:32.840Z,0.90
2022-09-02T14:33:25.706Z,0.90
2022-09-02T14:35:58.455Z,0.80
2022-09-02T14:38:28.491Z,0.90
2022-09-02T14:41:11.299Z,1.00
2022-09-02T14:43:46.807Z,1.20
2022-09-02T14:46:31.029Z,1.03
2022-09-02T14:49:05.730Z,0.80
2022-09-02T14:51:38.725Z,0.97
2022-09-02T14:54:08.415Z,0.80
2022-09-02T14:56:48.227Z,0.90
2022-09-02T14:59:16.412Z,0.87
2022-09-02T15:01:48.034Z,0.90
2022-09-02T15:04:16.967Z,0.83
2022-09-02T15:06:45.209Z,0.70
2022-09-02T15:09:16.388Z,0.90
2022-09-02T15:11:47.880Z,0.73
2022-09-02T15:14:16.160Z,1.00
2022-09-02T15:16:45.811Z,1.97
2022-09-02T15:19:14.134Z,0.80
2022-09-02T15:21:42.352Z,0.80
2022-09-02T15:24:11.040Z,0.90
2022-09-02T15:26:39.333Z,0.90
2022-09-02T15:29:08.063Z,0.97
2022-09-02T15:31:36.579Z,0.90
2022-09-02T15:34:06.764Z,0.87
2022-09-02T15:36:35.063Z,0.90
2022-09-02T15:39:03.232Z,0.80
2022-09-02T15:41:31.721Z,0.90
2022-09-02T15:44:00.915Z,0.90
2022-09-02T15:46:30.440Z,1.00
2022-09-02T15:49:03.232Z,0.90
2022-09-02T15:51:34.041Z,0.87
2022-09-02T15:54:04.483Z,0.90
2022-09-02T15:56:35.472Z,0.90
2022-09-02T15:59:09.221Z,0.90
2022-09-02T16:01:40.691Z,0.73
2022-09-02T16:04:09.736Z,1.00
2022-09-02T16:06:41.466Z,10.63
2022-09-02T16:09:11.147Z,1.13
2022-09-02T16:11:40.366Z,0.87
2022-09-02T16:14:08.948Z,1.00
2022-09-02T16:16:37.941Z,1.20
2022-09-02T16:19:07.617Z,1.03
2022-09-02T16:21:39.110Z,1.07
2022-09-02T16:24:09.881Z,1.30
2022-09-02T16:26:39.539Z,1.10
2022-09-02T16:29:09.743Z,1.20
2022-09-02T16:31:39.676Z,1.30
2022-09-02T16:34:09.739Z,1.30
2022-09-02T16:36:40.450Z,1.20
2022-09-02T16:39:12.444Z,1.10
2022-09-02T16:41:43.950Z,1.20
2022-09-02T16:44:16.095Z,1.17
2022-09-02T16:46:45.332Z,0.93
2022-09-02T16:49:18.550Z,1.05
2022-09-02T16:51:47.634Z,1.20
2022-09-02T16:54:30.784Z,0.90
2022-09-02T16:57:00.722Z,0.80
2022-09-02T16:59:31.492Z,0.80
2022-09-02T17:01:59.875Z,0.93
2022-09-02T17:04:28.143Z,1.05
2022-09-02T17:06:58.017Z,0.90
2022-09-02T17:09:27.606Z,1.10
2022-09-02T17:11:55.762Z,1.00
2022-09-02T17:14:24.121Z,0.90
2022-09-02T17:16:53.185Z,0.90
2022-09-02T17:19:22.759Z,1.13
2022-09-02T17:21:52.547Z,1.10
2022-09-02T17:24:22.856Z,1.02
2022-09-02T17:26:56.258Z,1.05
2022-09-02T17:29:48.196Z,1.15
2022-09-02T17:32:15.015Z,1.10
2022-09-02T17:34:43.157Z,1.40
2022-09-02T17:37:13.011Z,1.00
2022-09-02T17:39:41.229Z,1.30
2022-09-02T17:42:09.889Z,1.50
2022-09-02T17:44:40.337Z,1.50
2022-09-02T17:47:10.756Z,1.38
2022-09-02T17:49:42.395Z,1.30
2022-09-02T17:52:11.434Z,1.38
2022-09-02T17:54:41.353Z,1.60
2022-09-02T17:57:23.721Z,2.63
2022-09-02T18:00:07.262Z,2.00
2022-09-02T18:02:56.209Z,1.85
2022-09-02T22:09:56.023Z,4.50
